Accueil
METAR-TAF:

METAR-TAF

Aéroports :

Aéroport international de Lattaquié

Lattaquié, Syrie

latitude: 35-32N, longitude: 035-46E, altitude: 7 m

Observation

Le bulletin a été fait il y a 56 minutes, à 02:00 UTC
Vent 3 kt de est
Température 25°C
Humidité 74%
Pression 1005 hPa
Visibilité 10 km ou plus
Quelques nuages à une hauteur de 3000 ft

METAR: OSLK 200200Z 08003KT 9999 FEW030 25/20 Q1005

Heure: 05:56 (02:56 UTC)

Prévision

Le bulletin a été fait il y a 5 heures et 26 minutes, à 21:30 UTC
Prévision valable du 20 à 00 UTC au 20 à 24 UTC
Vent 6 kt de est/sud-est
Visibilité 10 km ou plus
Quelques nuages à une hauteur de 2600 ft
Temporairement
du 20 à 06 UTC au 20 à 15 UTC
Vent 5 kt de ouest
Visibilité 10 km ou plus
Quelques nuages à une hauteur de 2600 ft

TAF: OSLK 192130Z 2000/2024 12006KT 9999 FEW026 TEMPO 2006/2015 26005KT 9999 FEW026

Observations et prévisions météorologiques de plus de 4000 aéroports (messages METAR et TAF).

Les stations disponibles sont représentées par des disques jaunes et rouges sur la carte.

Passer la souris dessus pour voir le nom de la station.

Cliquer dessus pour voir les observations et prévisions météorologiques.

Pour changer de carte: cliquez sur les boutons verts avec une croix noire pour zoomer, sur le bouton vert avec un tiret pour effectuer un zoom arrière, ou sur les flèches vertes pour les cartes adjacentes.


METAR-TAF: